createdAt,value
2022-12-02T00:00:36.104Z,90.5
2022-12-02T00:01:36.512Z,90.56
2022-12-02T00:02:36.902Z,90.49
2022-12-02T00:03:37.213Z,90.47
2022-12-02T00:04:37.652Z,90.48
2022-12-02T00:05:38.310Z,90.46
2022-12-02T00:06:38.602Z,90.53
2022-12-02T00:07:38.908Z,90.53
2022-12-02T00:08:39.431Z,90.62
2022-12-02T00:09:43.317Z,90.53
2022-12-02T00:10:41.483Z,90.53
2022-12-02T00:11:42.116Z,90.4
2022-12-02T00:12:42.214Z,90.26
2022-12-02T00:13:44.148Z,90.26
2022-12-02T00:14:43.048Z,90.29
2022-12-02T00:15:45.928Z,90.29
2022-12-02T00:16:44.024Z,90.27
2022-12-02T00:17:44.186Z,90.16
2022-12-02T00:18:44.703Z,90.21
2022-12-02T00:19:45.223Z,90.19
2022-12-02T00:20:46.058Z,90.3
2022-12-02T00:21:46.682Z,90.24
2022-12-02T00:22:46.382Z,90.18
2022-12-02T00:23:47.102Z,90.15
2022-12-02T00:24:47.414Z,90.09
2022-12-02T00:25:53.049Z,90.14
2022-12-02T00:26:51.113Z,90.04
2022-12-02T00:27:51.431Z,90.06
2022-12-02T00:28:52.072Z,90.05
2022-12-02T00:29:52.261Z,89.98
2022-12-02T00:30:52.771Z,89.93
2022-12-02T00:31:53.277Z,89.92
2022-12-02T00:32:53.608Z,89.9
2022-12-02T00:33:54.227Z,89.86
2022-12-02T00:34:54.407Z,89.87
2022-12-02T00:35:54.780Z,89.89
2022-12-02T00:36:55.383Z,89.91
2022-12-02T00:37:55.697Z,90.01
2022-12-02T00:38:56.948Z,90.12
2022-12-02T00:39:56.533Z,90.08
2022-12-02T00:40:56.879Z,90.06
2022-12-02T00:41:57.566Z,90.08
2022-12-02T00:42:57.803Z,90.13
2022-12-02T00:43:58.389Z,90.09
2022-12-02T00:44:58.800Z,90.09
2022-12-02T00:45:59.274Z,90.05
2022-12-02T00:46:59.645Z,90.1
2022-12-02T00:48:00.492Z,90.11
2022-12-02T00:50:03.241Z,89.9
2022-12-02T00:51:04.901Z,89.77
2022-12-02T00:52:04.605Z,89.72
2022-12-02T00:53:04.391Z,89.78
2022-12-02T00:54:06.132Z,89.72
2022-12-02T00:55:06.231Z,89.78
2022-12-02T00:56:06.458Z,89.9
2022-12-02T00:57:06.165Z,89.98
2022-12-02T00:58:06.487Z,90.07
2022-12-02T00:59:06.728Z,90.12
2022-12-02T01:00:08.837Z,90.23
2022-12-02T01:01:07.918Z,90.24
2022-12-02T01:02:08.373Z,90.19
2022-12-02T01:03:08.747Z,90.18
2022-12-02T01:04:09.176Z,90.16
2022-12-02T01:05:10.504Z,90.07
2022-12-02T01:06:09.914Z,89.9
2022-12-02T01:07:10.642Z,89.98
2022-12-02T01:08:10.790Z,89.86
2022-12-02T01:09:11.453Z,89.75
2022-12-02T01:10:12.074Z,89.72
2022-12-02T01:11:12.698Z,89.59
2022-12-02T01:12:12.111Z,89.57
2022-12-02T01:13:13.024Z,89.65
2022-12-02T01:14:13.447Z,89.75
2022-12-02T01:15:13.855Z,89.98
2022-12-02T01:16:14.051Z,89.77
2022-12-02T01:17:14.702Z,89.84
2022-12-02T01:18:15.081Z,89.65
2022-12-02T01:19:15.508Z,89.65
2022-12-02T01:20:15.967Z,89.55
2022-12-02T01:21:16.355Z,89.29
2022-12-02T01:22:16.864Z,89.23
2022-12-02T01:23:17.806Z,89.33
2022-12-02T01:24:17.806Z,89.45
2022-12-02T01:25:18.291Z,89.35
2022-12-02T01:26:18.419Z,89.52
2022-12-02T01:27:19.153Z,89.54
2022-12-02T01:28:19.460Z,89.6
2022-12-02T01:29:19.579Z,89.72
2022-12-02T01:30:20.402Z,89.81
2022-12-02T01:31:20.963Z,89.78
2022-12-02T01:32:20.923Z,89.74
2022-12-02T01:33:21.353Z,89.84
2022-12-02T01:34:22.075Z,89.92
2022-12-02T01:35:22.486Z,89.96
2022-12-02T01:36:22.353Z,89.92
2022-12-02T01:37:23.132Z,89.89
2022-12-02T01:38:23.424Z,89.84
2022-12-02T01:39:24.054Z,89.88
2022-12-02T01:40:24.874Z,89.94
2022-12-02T01:41:25.174Z,89.96
2022-12-02T01:42:25.506Z,90.05
2022-12-02T01:43:25.911Z,90.06
2022-12-02T01:44:26.361Z,90.05
2022-12-02T01:45:26.728Z,90.09
2022-12-02T01:46:27.031Z,90.13
2022-12-02T01:47:27.370Z,90.11
2022-12-02T01:48:28.936Z,90.02
2022-12-02T01:49:28.520Z,89.96
2022-12-02T01:50:29.951Z,89.78
2022-12-02T01:51:28.937Z,89.89
2022-12-02T01:52:29.573Z,89.62
2022-12-02T01:53:29.875Z,89.56
2022-12-02T01:54:30.772Z,89.69
2022-12-02T01:55:30.765Z,89.54
2022-12-02T01:56:31.001Z,89.59
2022-12-02T01:57:32.167Z,89.53
2022-12-02T01:58:32.455Z,89.46
2022-12-02T01:59:32.472Z,89.52
2022-12-02T02:00:32.687Z,89.45
2022-12-02T02:01:35.349Z,89.5
2022-12-02T02:02:36.305Z,89.7
2022-12-02T02:03:34.157Z,89.78
2022-12-02T02:04:34.770Z,89.81
2022-12-02T02:05:36.103Z,89.89
2022-12-02T02:06:39.064Z,89.76
2022-12-02T02:07:37.876Z,89.85
2022-12-02T02:08:37.344Z,89.89
2022-12-02T02:09:37.654Z,89.92
2022-12-02T02:10:39.722Z,90.01
2022-12-02T02:11:39.385Z,90.1
2022-12-02T02:12:39.542Z,90.05
2022-12-02T02:13:39.641Z,90.08
2022-12-02T02:14:40.051Z,90.08
2022-12-02T02:15:43.329Z,90.09
2022-12-02T02:16:41.623Z,90.08
2022-12-02T02:17:41.803Z,89.91
2022-12-02T02:18:42.020Z,89.69
2022-12-02T02:19:42.316Z,89.58
2022-12-02T02:20:43.059Z,89.56
2022-12-02T02:23:49.424Z,89.39
2022-12-02T02:24:50.075Z,89.38
2022-12-02T02:25:53.934Z,89.28
2022-12-02T02:26:52.042Z,89.32
2022-12-02T02:28:54.993Z,89.39
2022-12-02T02:29:55.234Z,89.51
2022-12-02T02:30:57.917Z,89.66
2022-12-02T02:31:56.267Z,89.81
2022-12-02T02:32:57.577Z,89.85
2022-12-02T02:33:57.074Z,89.93
2022-12-02T02:34:57.486Z,90.01
2022-12-02T02:35:58.406Z,90.04
2022-12-02T02:36:59.035Z,90
2022-12-02T02:37:58.831Z,90.06
2022-12-02T02:38:59.249Z,90.09
2022-12-02T02:39:59.663Z,89.98
2022-12-02T02:40:59.985Z,89.88
2022-12-02T02:42:01.006Z,89.97
2022-12-02T02:43:03.468Z,90.01
2022-12-02T02:44:01.443Z,89.93
2022-12-02T02:45:02.667Z,90.02
2022-12-02T02:46:03.102Z,89.93
2022-12-02T02:47:02.587Z,89.89
2022-12-02T02:48:05.249Z,89.95
2022-12-02T02:49:04.051Z,89.82
2022-12-02T02:50:04.543Z,89.87
2022-12-02T02:51:05.362Z,89.84
2022-12-02T02:52:04.774Z,89.9
2022-12-02T02:53:06.004Z,89.83
2022-12-02T02:54:05.904Z,89.88
2022-12-02T02:55:07.754Z,89.84
2022-12-02T02:56:07.170Z,89.78
2022-12-02T02:57:08.336Z,89.69
2022-12-02T02:59:14.552Z,89.54
2022-12-02T03:00:13.821Z,89.48
2022-12-02T03:02:16.840Z,89.59
2022-12-02T03:03:20.906Z,89.41
2022-12-02T03:04:21.322Z,89.46
2022-12-02T03:05:20.823Z,89.42
2022-12-02T03:06:20.013Z,89.41
2022-12-02T03:07:20.725Z,89.38
2022-12-02T03:08:22.276Z,89.46
2022-12-02T03:09:23.519Z,89.62
2022-12-02T03:10:21.884Z,89.72
2022-12-02T03:11:22.403Z,89.79
2022-12-02T03:12:22.874Z,89.81
2022-12-02T03:13:23.133Z,89.84
2022-12-02T03:14:24.063Z,89.81
2022-12-02T03:15:25.124Z,89.78
2022-12-02T03:16:26.197Z,89.66
2022-12-02T03:17:24.687Z,89.52
2022-12-02T03:18:25.308Z,89.57
2022-12-02T03:19:25.312Z,89.45
2022-12-02T03:20:26.250Z,89.42
2022-12-02T03:21:27.277Z,89.17
2022-12-02T03:22:27.295Z,89.07
2022-12-02T03:23:27.396Z,89.08
2022-12-02T03:24:27.612Z,89.03
2022-12-02T03:25:28.223Z,89.04
2022-12-02T03:26:28.653Z,89.01
2022-12-02T03:27:29.368Z,88.84
2022-12-02T03:28:29.685Z,88.84
2022-12-02T03:29:30.606Z,88.94
2022-12-02T03:30:30.179Z,89.12
2022-12-02T03:31:30.864Z,89.13
2022-12-02T03:32:30.549Z,89.15
2022-12-02T03:33:31.255Z,89.18
2022-12-02T03:34:31.671Z,89.14
2022-12-02T03:35:31.987Z,89.19
2022-12-02T03:36:32.539Z,89.18
2022-12-02T03:37:33.009Z,89.26
2022-12-02T03:38:34.249Z,89.21
2022-12-02T03:39:33.754Z,89.18
2022-12-02T03:40:34.166Z,89.09
2022-12-02T03:41:34.587Z,89.05
2022-12-02T03:42:35.096Z,89.32
2022-12-02T03:43:35.507Z,89.2
2022-12-02T03:44:35.822Z,89.17
2022-12-02T03:45:36.449Z,89.12
2022-12-02T03:46:37.039Z,89.16
2022-12-02T03:47:37.262Z,89.11
2022-12-02T03:48:38.929Z,88.97
2022-12-02T03:49:38.534Z,88.9
2022-12-02T03:50:39.145Z,88.9
2022-12-02T03:51:38.749Z,88.94
2022-12-02T03:52:39.580Z,88.85
2022-12-02T03:53:39.977Z,88.82
2022-12-02T03:54:40.299Z,88.92
2022-12-02T03:55:40.635Z,88.91
2022-12-02T03:56:42.256Z,89.09
2022-12-02T03:57:41.130Z,89.1
2022-12-02T03:58:50.677Z,89.11
2022-12-02T03:59:43.718Z,89.19
2022-12-02T04:00:44.238Z,89.3
2022-12-02T04:01:44.645Z,89.18
2022-12-02T04:02:44.847Z,89.06
2022-12-02T04:03:45.397Z,89.17
2022-12-02T04:04:45.996Z,89.19
2022-12-02T04:05:49.421Z,89.4
2022-12-02T04:06:48.055Z,89.5
2022-12-02T04:07:48.439Z,89.43
2022-12-02T04:08:48.790Z,89.38
2022-12-02T04:09:49.196Z,89.34
2022-12-02T04:10:49.467Z,89.3
2022-12-02T04:11:49.825Z,89.36
2022-12-02T04:12:50.551Z,89.24
2022-12-02T04:13:50.770Z,89.2
2022-12-02T04:14:51.536Z,89.29
2022-12-02T04:15:51.956Z,89.28
2022-12-02T04:16:52.128Z,89.37
2022-12-02T04:17:52.439Z,89.45
2022-12-02T04:18:52.848Z,89.45
2022-12-02T04:19:53.058Z,89.53
2022-12-02T04:20:53.678Z,89.53
2022-12-02T04:21:54.097Z,89.85
2022-12-02T04:22:54.515Z,89.62
2022-12-02T04:23:55.126Z,89.34
2022-12-02T04:24:55.221Z,89.44
2022-12-02T04:25:55.759Z,89.47
2022-12-02T04:26:56.384Z,89.57
2022-12-02T04:27:56.487Z,89.59
2022-12-02T04:28:56.906Z,89.2
2022-12-02T04:29:57.336Z,89.1
2022-12-02T04:30:58.282Z,89.11
2022-12-02T04:31:58.158Z,89.15
2022-12-02T04:32:58.669Z,89.29
2022-12-02T04:33:58.993Z,89.09
2022-12-02T04:34:59.500Z,89.05
2022-12-02T04:35:59.633Z,89.13
2022-12-02T04:37:00.137Z,89.08
2022-12-02T04:38:00.658Z,89.04
2022-12-02T04:39:01.166Z,89
2022-12-02T04:40:01.499Z,89.04
2022-12-02T04:41:01.899Z,89.04
2022-12-02T04:42:02.414Z,89.01
2022-12-02T04:43:02.856Z,88.98
2022-12-02T04:44:03.255Z,88.96
2022-12-02T04:45:04.399Z,88.83
2022-12-02T04:46:04.054Z,88.79
2022-12-02T04:47:04.494Z,88.72
2022-12-02T04:48:05.220Z,88.51
2022-12-02T04:49:05.119Z,88.56
2022-12-02T04:50:07.799Z,88.5
2022-12-02T04:51:06.568Z,88.4
2022-12-02T04:52:06.687Z,88.34
2022-12-02T04:53:06.830Z,88.33
2022-12-02T04:54:07.610Z,88.25
2022-12-02T04:55:08.549Z,88.4
2022-12-02T04:56:08.758Z,88.63
2022-12-02T04:57:09.184Z,88.68
2022-12-02T04:58:09.074Z,88.69
2022-12-02T04:59:09.598Z,88.87
2022-12-02T05:00:11.036Z,88.85
2022-12-02T05:01:10.240Z,88.8
2022-12-02T05:02:10.943Z,88.79
2022-12-02T05:03:11.307Z,88.69
2022-12-02T05:04:11.602Z,88.66
2022-12-02T05:05:12.508Z,88.65
2022-12-02T05:06:12.199Z,88.62
2022-12-02T05:07:12.600Z,88.72
2022-12-02T05:08:13.365Z,88.59
2022-12-02T05:09:13.770Z,88.32
2022-12-02T05:10:14.065Z,88.54
2022-12-02T05:11:14.491Z,88.45
2022-12-02T05:12:14.800Z,88.39
2022-12-02T05:13:15.235Z,88.56
2022-12-02T05:14:15.527Z,88.82
2022-12-02T05:15:16.155Z,88.75
2022-12-02T05:16:16.525Z,88.75
2022-12-02T05:17:16.987Z,88.92
2022-12-02T05:18:17.506Z,88.86
2022-12-02T05:19:17.636Z,88.82
2022-12-02T05:20:18.345Z,88.75
2022-12-02T05:21:18.612Z,88.72
2022-12-02T05:22:18.956Z,88.78
2022-12-02T05:23:19.455Z,88.71
2022-12-02T05:24:19.795Z,88.71
2022-12-02T05:25:20.121Z,88.88
2022-12-02T05:26:20.628Z,88.88
2022-12-02T05:27:21.050Z,89.14
2022-12-02T05:28:21.668Z,89.08
2022-12-02T05:29:21.775Z,88.97
2022-12-02T05:30:22.188Z,88.7
2022-12-02T05:31:22.814Z,88.53
2022-12-02T05:32:23.140Z,88.45
2022-12-02T05:33:23.743Z,88.51
2022-12-02T05:34:23.854Z,88.63
2022-12-02T05:35:24.378Z,88.76
2022-12-02T05:36:24.583Z,88.82
2022-12-02T05:37:25.215Z,88.78
2022-12-02T05:38:25.526Z,88.81
2022-12-02T05:39:25.937Z,88.7
2022-12-02T05:40:26.455Z,88.74
2022-12-02T05:41:26.865Z,88.96
2022-12-02T05:42:28.004Z,89.04
2022-12-02T05:43:27.703Z,89
2022-12-02T05:44:29.623Z,88.99
2022-12-02T05:45:28.529Z,88.93
2022-12-02T05:46:29.014Z,88.97
2022-12-02T05:47:30.385Z,88.87
2022-12-02T05:48:34.797Z,88.94
2022-12-02T05:49:34.299Z,89.11
2022-12-02T05:50:33.281Z,89.08
2022-12-02T05:51:33.593Z,89.39
2022-12-02T05:52:34.726Z,89.21
2022-12-02T05:53:35.647Z,89.31
2022-12-02T05:54:34.844Z,89.41
2022-12-02T05:55:35.980Z,89.51
2022-12-02T05:56:35.562Z,89.22
2022-12-02T05:57:36.091Z,89.01
2022-12-02T05:58:36.414Z,88.84
2022-12-02T05:59:36.915Z,88.71
2022-12-02T06:00:37.845Z,88.79
2022-12-02T06:01:40.601Z,88.82
2022-12-02T06:02:42.317Z,89
2022-12-02T06:03:40.349Z,89.03
2022-12-02T06:04:40.641Z,89.18
2022-12-02T06:05:42.696Z,89.22
2022-12-02T06:06:41.773Z,89.19
2022-12-02T06:07:42.096Z,89.15
2022-12-02T06:08:42.720Z,89
2022-12-02T06:09:43.921Z,88.95
2022-12-02T06:10:47.642Z,88.87
2022-12-02T06:11:47.353Z,88.87
2022-12-02T06:12:46.229Z,88.86
2022-12-02T06:13:46.533Z,88.88
2022-12-02T06:14:52.710Z,88.8
2022-12-02T06:15:51.971Z,88.69
2022-12-02T06:16:54.510Z,88.64
2022-12-02T06:17:53.525Z,88.63
2022-12-02T06:18:53.327Z,88.63
2022-12-02T06:19:58.249Z,88.65
2022-12-02T06:20:58.561Z,88.7
2022-12-02T06:22:00.520Z,88.9
2022-12-02T06:23:00.931Z,88.96
2022-12-02T06:24:02.078Z,88.95
2022-12-02T06:25:05.966Z,89.13
2022-12-02T06:26:04.647Z,89.06
2022-12-02T06:27:04.958Z,88.99
2022-12-02T06:29:05.782Z,89.11
2022-12-02T06:30:08.856Z,89.19
2022-12-02T06:32:19.313Z,88.88
2022-12-02T06:37:24.803Z,88.53
2022-12-02T06:39:25.203Z,88.49
2022-12-02T06:40:30.093Z,88.3
2022-12-02T06:41:30.952Z,88.23
2022-12-02T06:42:35.665Z,88.27
2022-12-02T06:43:33.737Z,88.31
2022-12-02T06:44:33.946Z,88.36
2022-12-02T06:45:35.373Z,88.34
2022-12-02T06:46:36.573Z,88.34
2022-12-02T06:48:36.524Z,88.3
2022-12-02T06:49:40.936Z,88.33
2022-12-02T06:50:43.485Z,88.18
2022-12-02T06:51:41.585Z,88.11
2022-12-02T06:52:45.357Z,88.06
2022-12-02T06:53:43.537Z,87.93
2022-12-02T06:54:46.296Z,87.97
2022-12-02T06:55:44.539Z,87.99
2022-12-02T06:56:44.878Z,87.89
2022-12-02T06:57:45.296Z,87.9
2022-12-02T06:58:51.953Z,87.9
2022-12-02T06:59:52.373Z,87.83
2022-12-02T07:00:50.592Z,87.73
2022-12-02T07:01:56.808Z,87.74
2022-12-02T07:02:55.103Z,87.93
2022-12-02T07:05:00.696Z,87.85
2022-12-02T07:08:04.973Z,88.04
2022-12-02T07:18:25.966Z,88.09
2022-12-02T07:20:33.871Z,87.89
2022-12-02T07:21:32.140Z,87.76
2022-12-02T07:24:38.096Z,87.59
2022-12-02T07:25:40.255Z,87.67
2022-12-02T07:26:39.541Z,87.7
2022-12-02T07:28:45.083Z,87.86
2022-12-02T07:29:42.945Z,87.87
2022-12-02T07:30:43.726Z,87.83
2022-12-02T07:31:44.424Z,87.61
2022-12-02T07:32:44.084Z,87.76
2022-12-02T07:33:44.907Z,87.75
2022-12-02T07:34:45.241Z,87.76
2022-12-02T07:35:45.316Z,87.66
2022-12-02T07:36:45.855Z,87.69
2022-12-02T07:37:46.683Z,87.74
2022-12-02T07:39:49.563Z,87.58
2022-12-02T07:40:49.765Z,87.59
2022-12-02T07:41:50.492Z,87.59
2022-12-02T07:42:52.142Z,87.63
2022-12-02T07:43:51.127Z,87.71
2022-12-02T07:44:52.095Z,87.67
2022-12-02T07:45:51.997Z,87.74
2022-12-02T07:46:52.387Z,87.89
2022-12-02T07:47:52.682Z,87.86
2022-12-02T07:48:57.148Z,87.77
2022-12-02T07:49:55.666Z,87.89
2022-12-02T07:50:56.096Z,87.78
2022-12-02T07:51:56.513Z,87.76
2022-12-02T07:52:56.806Z,87.59
2022-12-02T07:53:57.229Z,87.58
2022-12-02T07:54:57.635Z,87.52
2022-12-02T07:55:57.953Z,87.45
2022-12-02T07:56:58.578Z,87.56
2022-12-02T07:57:58.898Z,87.53
2022-12-02T07:59:14.696Z,87.36
2022-12-02T08:00:05.971Z,87.44
2022-12-02T08:01:04.003Z,87.46
2022-12-02T08:02:04.606Z,87.54
2022-12-02T08:03:04.970Z,87.53
2022-12-02T08:04:05.492Z,87.65
2022-12-02T08:05:06.743Z,87.73
2022-12-02T08:06:06.413Z,87.83
2022-12-02T08:07:06.644Z,87.62
2022-12-02T08:08:07.154Z,87.45
2022-12-02T08:09:08.498Z,87.4
2022-12-02T08:10:09.320Z,87.56
2022-12-02T08:11:08.197Z,87.53
2022-12-02T08:12:08.612Z,87.5
2022-12-02T08:13:08.957Z,87.39
2022-12-02T08:14:09.440Z,87.14
2022-12-02T08:15:12.321Z,87.21
2022-12-02T08:16:10.403Z,87.17
2022-12-02T08:17:10.994Z,87.18
2022-12-02T08:18:11.333Z,87.13
2022-12-02T08:19:11.630Z,87.02
2022-12-02T08:20:13.993Z,86.93
2022-12-02T08:21:12.354Z,86.87
2022-12-02T08:22:12.772Z,87.11
2022-12-02T08:23:13.393Z,87.22
2022-12-02T08:24:13.599Z,87.25
2022-12-02T08:25:14.326Z,87.37
2022-12-02T08:26:14.679Z,87.27
2022-12-02T08:27:15.292Z,87.09
2022-12-02T08:28:15.578Z,87.2
2022-12-02T08:29:15.924Z,87.4
2022-12-02T08:30:16.922Z,87.52
2022-12-02T08:31:16.866Z,87.26
2022-12-02T08:32:18.163Z,87.23
2022-12-02T08:33:17.556Z,87.23
2022-12-02T08:34:17.943Z,87.28
2022-12-02T08:35:18.504Z,87.36
2022-12-02T08:36:19.930Z,87.19
2022-12-02T08:37:19.529Z,87.13
2022-12-02T08:38:20.048Z,87.19
2022-12-02T08:39:20.256Z,87.3
2022-12-02T08:40:20.983Z,87.4
2022-12-02T08:41:21.192Z,87.23
2022-12-02T08:42:21.503Z,87.16
2022-12-02T08:43:21.715Z,87.08
2022-12-02T08:44:22.546Z,87.09
2022-12-02T08:45:23.095Z,87.04
2022-12-02T08:46:23.456Z,87.02
2022-12-02T08:47:23.792Z,87.18
2022-12-02T08:48:24.207Z,87.21
2022-12-02T08:49:24.929Z,87.08
2022-12-02T08:50:25.446Z,87.12
2022-12-02T08:51:25.665Z,87.23
2022-12-02T08:52:26.172Z,87.33
2022-12-02T08:53:26.293Z,87.37
2022-12-02T08:54:26.701Z,87.29
2022-12-02T08:55:28.261Z,87.34
2022-12-02T08:56:27.632Z,87.25
2022-12-02T08:57:28.157Z,87.19
2022-12-02T08:58:28.573Z,87.16
2022-12-02T08:59:28.987Z,87.25
2022-12-02T09:00:31.975Z,87.36
2022-12-02T09:01:33.862Z,87.43
2022-12-02T09:02:35.522Z,87.44
2022-12-02T09:03:35.053Z,87.34
2022-12-02T09:04:35.371Z,87.3
2022-12-02T09:05:36.911Z,87.07
2022-12-02T09:06:36.658Z,86.98
2022-12-02T09:07:36.833Z,86.92
2022-12-02T09:08:36.867Z,87.16
2022-12-02T09:09:37.354Z,87.31
2022-12-02T09:10:38.035Z,87.39
2022-12-02T09:11:38.390Z,87.53
2022-12-02T09:12:38.813Z,87.49
2022-12-02T09:13:38.813Z,87.42
2022-12-02T09:14:39.534Z,87.34
2022-12-02T09:15:39.898Z,87.44
2022-12-02T09:16:40.474Z,87.42
2022-12-02T09:17:40.919Z,87.35
2022-12-02T09:18:41.226Z,87.33
2022-12-02T09:19:41.529Z,87.34
2022-12-02T09:20:41.936Z,87.52
2022-12-02T09:21:42.565Z,87.7
2022-12-02T09:22:43.077Z,87.73
2022-12-02T09:23:48.909Z,87.47
2022-12-02T09:24:48.443Z,87.32
2022-12-02T09:25:48.924Z,87.3
2022-12-02T09:26:49.345Z,87.42
2022-12-02T09:27:49.737Z,87.48
2022-12-02T09:28:49.986Z,87.55
2022-12-02T09:29:50.586Z,87.46
2022-12-02T09:30:51.460Z,87.41
2022-12-02T09:31:51.423Z,87.26
2022-12-02T09:32:51.669Z,87.28
2022-12-02T09:33:52.473Z,87.42
2022-12-02T09:34:53.236Z,87.43
2022-12-02T09:35:53.350Z,87.45
2022-12-02T09:36:53.613Z,87.48
2022-12-02T09:37:54.123Z,87.58
2022-12-02T09:38:54.443Z,87.5
2022-12-02T09:39:55.165Z,87.55
2022-12-02T09:40:55.573Z,87.67
2022-12-02T09:41:55.686Z,87.61
2022-12-02T09:42:56.648Z,87.41
2022-12-02T09:43:57.133Z,87.53
2022-12-02T09:44:59.110Z,87.53
2022-12-02T09:45:58.713Z,87.55
2022-12-02T09:46:59.219Z,87.43
2022-12-02T09:47:58.691Z,87.34
2022-12-02T09:48:59.433Z,87.32
2022-12-02T09:50:00.038Z,87.47
2022-12-02T09:51:00.676Z,87.43
2022-12-02T09:52:03.743Z,87.48
2022-12-02T09:53:07.842Z,87.51
2022-12-02T09:54:06.012Z,87.56
2022-12-02T09:55:14.106Z,87.62
2022-12-02T09:56:14.328Z,87.5
2022-12-02T09:59:17.304Z,87.55
2022-12-02T10:00:18.643Z,87.52
2022-12-02T10:01:17.572Z,87.33
2022-12-02T10:03:19.520Z,87.42
2022-12-02T10:04:22.352Z,87.45
2022-12-02T10:05:28.816Z,87.32
2022-12-02T10:06:27.185Z,87.45
2022-12-02T10:07:25.600Z,87.53
2022-12-02T10:08:31.707Z,87.58
2022-12-02T10:09:31.803Z,87.54
2022-12-02T10:10:37.955Z,87.73
2022-12-02T10:11:36.221Z,87.67
2022-12-02T10:12:36.328Z,87.62
2022-12-02T10:13:40.839Z,87.88
2022-12-02T10:14:39.625Z,87.97
2022-12-02T10:15:39.511Z,87.99
2022-12-02T10:16:39.980Z,88.04
2022-12-02T10:17:40.156Z,87.81
2022-12-02T10:18:42.513Z,87.75
2022-12-02T10:19:41.289Z,87.79
2022-12-02T10:20:41.501Z,87.89
2022-12-02T10:21:41.920Z,87.86
2022-12-02T10:24:50.102Z,87.66
2022-12-02T10:25:52.917Z,87.77
2022-12-02T10:26:53.217Z,87.74
2022-12-02T10:27:51.479Z,87.85
2022-12-02T10:32:08.515Z,87.65
2022-12-02T10:33:07.493Z,87.85
2022-12-02T10:34:08.315Z,87.9
2022-12-02T10:35:10.385Z,87.89
2022-12-02T10:36:09.875Z,88.08
2022-12-02T10:40:24.224Z,88.74
2022-12-02T10:41:23.617Z,88.6
2022-12-02T10:42:22.086Z,88.33
2022-12-02T10:43:22.613Z,88.49
2022-12-02T10:44:23.433Z,88.32
2022-12-02T10:45:25.589Z,87.98
2022-12-02T10:46:24.294Z,88.17
2022-12-02T10:47:27.082Z,88.29
2022-12-02T10:48:25.393Z,88.17
2022-12-02T10:49:33.807Z,88.19
2022-12-02T10:50:26.688Z,88.38
2022-12-02T10:51:27.170Z,88.41
2022-12-02T10:53:31.375Z,88.1
2022-12-02T10:54:36.771Z,88.16
2022-12-02T10:55:31.086Z,88.15
2022-12-02T10:56:31.411Z,88.23
2022-12-02T10:57:34.380Z,88.24
2022-12-02T10:58:32.738Z,88.49
2022-12-02T10:59:34.091Z,88.48
2022-12-02T11:00:33.429Z,88.57
2022-12-02T11:01:33.883Z,88.47
2022-12-02T11:02:38.241Z,88.39
2022-12-02T11:03:36.364Z,88.68
2022-12-02T11:04:36.885Z,88.5
2022-12-02T11:05:37.500Z,88.38
2022-12-02T11:06:37.715Z,88.58
2022-12-02T11:07:38.225Z,88.64
2022-12-02T11:08:38.973Z,88.64
2022-12-02T11:09:40.803Z,88.74
2022-12-02T11:10:45.014Z,88.87
2022-12-02T11:11:43.378Z,88.81
2022-12-02T11:14:55.891Z,88.72
2022-12-02T11:15:54.623Z,88.68
2022-12-02T11:17:58.290Z,88.86
2022-12-02T11:22:05.424Z,88.49
2022-12-02T11:26:14.191Z,88.79
2022-12-02T11:27:18.258Z,88.64
2022-12-02T11:29:20.765Z,88.93
2022-12-02T11:31:24.991Z,89.01
2022-12-02T11:36:35.763Z,88.86
2022-12-02T11:39:42.853Z,88.64
2022-12-02T11:42:47.063Z,89.01
2022-12-02T11:44:49.581Z,88.91
2022-12-02T11:46:59.986Z,88.83
2022-12-02T11:48:01.115Z,88.96
2022-12-02T11:48:56.109Z,89.33
2022-12-02T11:49:55.194Z,89.46
2022-12-02T11:50:55.000Z,89.38
2022-12-02T11:54:00.450Z,88.88
2022-12-02T11:56:00.969Z,89.17
2022-12-02T11:57:01.384Z,89.08
2022-12-02T11:58:02.722Z,89.31
2022-12-02T11:59:02.417Z,89.4
2022-12-02T12:00:03.253Z,89.29
2022-12-02T12:02:17.288Z,88.88
2022-12-02T12:03:19.436Z,89.09
2022-12-02T12:05:15.261Z,88.96
2022-12-02T12:06:26.035Z,89.14
2022-12-02T12:07:19.269Z,89.27
2022-12-02T12:08:31.767Z,89.45
2022-12-02T12:09:19.698Z,89.4
2022-12-02T12:11:32.712Z,89.27
2022-12-02T12:12:25.782Z,89.14
2022-12-02T12:13:26.274Z,89.19
2022-12-02T12:14:26.696Z,89.19
2022-12-02T12:16:31.117Z,89.25
2022-12-02T12:19:36.860Z,89.03
2022-12-02T12:20:45.988Z,89.52
2022-12-02T12:21:52.854Z,89.49
2022-12-02T12:22:41.797Z,89.03
2022-12-02T12:23:46.112Z,89.11
2022-12-02T12:24:44.567Z,89.24
2022-12-02T12:25:45.526Z,89.35
2022-12-02T12:26:50.323Z,89.36
2022-12-02T12:27:48.584Z,89.44
2022-12-02T12:28:48.605Z,89.55
2022-12-02T12:29:49.317Z,89.69
2022-12-02T12:30:49.720Z,89.55
2022-12-02T12:31:50.352Z,89.53
2022-12-02T12:32:50.679Z,89.45
2022-12-02T12:33:51.105Z,89.43
2022-12-02T12:34:51.956Z,89.22
2022-12-02T12:35:54.192Z,89.33
2022-12-02T12:36:52.535Z,89.16
2022-12-02T12:37:52.960Z,88.98
2022-12-02T12:38:53.364Z,89.21
2022-12-02T12:39:53.723Z,89.32
2022-12-02T12:40:54.430Z,88.99
2022-12-02T12:42:02.495Z,88.92
2022-12-02T12:42:55.857Z,89.1
2022-12-02T12:43:56.268Z,89.09
2022-12-02T12:44:56.814Z,89.07
2022-12-02T12:45:57.315Z,89.13
2022-12-02T12:46:57.721Z,89.38
2022-12-02T12:47:58.137Z,89.62
2022-12-02T12:48:58.552Z,89.83
2022-12-02T12:49:59.171Z,89.44
2022-12-02T12:50:59.485Z,89.1
2022-12-02T12:51:59.914Z,89.16
2022-12-02T12:53:00.628Z,89.03
2022-12-02T12:54:00.747Z,88.84
2022-12-02T12:55:01.255Z,89.22
2022-12-02T12:56:01.669Z,89.35
2022-12-02T12:57:02.307Z,89.1
2022-12-02T12:58:02.702Z,89.22
2022-12-02T12:59:04.558Z,89.43
2022-12-02T13:00:05.525Z,89.58
2022-12-02T13:01:04.279Z,89.66
2022-12-02T13:02:04.717Z,89.78
2022-12-02T13:03:05.131Z,89.99
2022-12-02T13:04:06.139Z,90.03
2022-12-02T13:05:06.444Z,90.01
2022-12-02T13:06:06.862Z,89.96
2022-12-02T13:07:06.868Z,89.95
2022-12-02T13:08:10.222Z,89.64
2022-12-02T13:09:08.021Z,89.58
2022-12-02T13:10:09.756Z,89.42
2022-12-02T13:11:09.146Z,89.59
2022-12-02T13:12:12.870Z,89.77
2022-12-02T13:13:11.515Z,89.92
2022-12-02T13:14:11.823Z,89.95
2022-12-02T13:15:12.450Z,89.88
2022-12-02T13:16:12.663Z,89.75
2022-12-02T13:17:13.670Z,90.03
2022-12-02T13:18:13.692Z,89.91
2022-12-02T13:19:14.313Z,89.77
2022-12-02T13:20:14.738Z,89.83
2022-12-02T13:21:15.245Z,89.65
2022-12-02T13:22:15.667Z,89.64
2022-12-02T13:23:15.771Z,89.82
2022-12-02T13:24:16.500Z,89.88
2022-12-02T13:25:17.782Z,90.02
2022-12-02T13:26:17.438Z,90.08
2022-12-02T13:27:18.060Z,90.11
2022-12-02T13:28:18.469Z,90.1
2022-12-02T13:29:18.985Z,90.05
2022-12-02T13:30:21.452Z,90.3
2022-12-02T13:31:19.871Z,90.24
2022-12-02T13:32:20.343Z,90.12
2022-12-02T13:33:20.752Z,90.37
2022-12-02T13:34:21.078Z,90.26
2022-12-02T13:35:22.860Z,90.23
2022-12-02T13:36:22.009Z,90.51
2022-12-02T13:37:22.630Z,90.36
2022-12-02T13:38:22.832Z,90.29
2022-12-02T13:39:23.572Z,90.34
2022-12-02T13:40:23.991Z,90.31
2022-12-02T13:41:24.291Z,90.19
2022-12-02T13:42:24.836Z,90.27
2022-12-02T13:43:25.232Z,90.36
2022-12-02T13:44:26.065Z,90.35
2022-12-02T13:45:26.679Z,90.31
2022-12-02T13:46:27.094Z,90.44
2022-12-02T13:47:28.019Z,90.52
2022-12-02T13:48:28.230Z,90.48
2022-12-02T13:49:28.336Z,90.58
2022-12-02T13:50:29.059Z,90.53
2022-12-02T13:51:29.374Z,90.62
2022-12-02T13:52:29.787Z,90.54
2022-12-02T13:53:30.516Z,90.6
2022-12-02T13:54:30.729Z,90.69
2022-12-02T13:55:31.031Z,90.76
2022-12-02T13:56:31.684Z,90.66
2022-12-02T13:57:31.915Z,90.65
2022-12-02T13:58:32.487Z,90.66
2022-12-02T13:59:37.994Z,90.47
2022-12-02T14:00:36.392Z,90.52
2022-12-02T14:01:36.751Z,90.6
2022-12-02T14:02:37.327Z,90.44
2022-12-02T14:03:37.819Z,90.65
2022-12-02T14:04:38.205Z,90.6
2022-12-02T14:05:38.785Z,90.49
2022-12-02T14:06:39.097Z,90.56
2022-12-02T14:07:39.676Z,90.63
2022-12-02T14:08:39.943Z,90.81
2022-12-02T14:09:40.650Z,90.72
2022-12-02T14:10:40.866Z,90.8
2022-12-02T14:11:41.392Z,90.68
2022-12-02T14:12:41.905Z,90.8
2022-12-02T14:13:42.114Z,90.7
2022-12-02T14:14:42.841Z,90.6
2022-12-02T14:15:43.217Z,90.63
2022-12-02T14:16:43.672Z,90.67
2022-12-02T14:17:44.082Z,90.7
2022-12-02T14:18:44.401Z,90.76
2022-12-02T14:19:45.033Z,90.96